createdAt,value
2022-08-17T00:02:21.216Z,20.60
2022-08-17T00:04:18.618Z,20.60
2022-08-17T00:06:24.799Z,20.60
2022-08-17T00:08:31.243Z,20.60
2022-08-17T00:10:35.627Z,20.60
2022-08-17T00:12:44.592Z,20.50
2022-08-17T00:14:48.655Z,20.50
2022-08-17T00:16:57.247Z,20.60
2022-08-17T00:21:25.141Z,20.60
2022-08-17T00:23:25.107Z,20.50
2022-08-17T00:25:28.905Z,20.50
2022-08-17T00:27:33.006Z,20.50
2022-08-17T00:29:36.619Z,20.40
2022-08-17T00:31:40.341Z,20.30
2022-08-17T00:33:45.456Z,20.40
2022-08-17T00:35:50.201Z,20.40
2022-08-17T00:37:53.707Z,20.30
2022-08-17T00:39:57.433Z,20.30
2022-08-17T00:42:01.245Z,20.30
2022-08-17T00:44:07.206Z,20.30
2022-08-17T00:46:13.443Z,20.30
2022-08-17T00:48:29.066Z,20.30
2022-08-17T00:50:22.571Z,20.30
2022-08-17T00:52:30.202Z,20.30
2022-08-17T00:54:41.739Z,20.20
2022-08-17T00:56:45.210Z,20.20
2022-08-17T00:58:51.730Z,20.10
2022-08-17T01:00:55.473Z,20.20
2022-08-17T01:03:02.699Z,20.10
2022-08-17T01:07:27.236Z,20.00
2022-08-17T01:09:31.873Z,20.00
2022-08-17T01:11:36.597Z,19.90
2022-08-17T01:13:43.040Z,19.80
2022-08-17T01:15:51.101Z,19.70
2022-08-17T01:17:54.840Z,19.80
2022-08-17T01:22:21.677Z,19.80
2022-08-17T01:24:25.437Z,19.80
2022-08-17T01:26:32.369Z,19.90
2022-08-17T01:28:54.066Z,19.90
2022-08-17T01:30:57.791Z,19.90
2022-08-17T01:32:51.722Z,19.90
2022-08-17T01:34:56.842Z,19.90
2022-08-17T01:37:00.869Z,19.80
2022-08-17T01:39:06.948Z,19.70
2022-08-17T01:41:23.088Z,19.70
2022-08-17T01:43:31.832Z,19.60
2022-08-17T01:46:02.835Z,19.60
2022-08-17T01:50:18.643Z,19.50
2022-08-17T01:52:23.304Z,19.50
2022-08-17T01:54:27.576Z,19.50
2022-08-17T01:56:32.472Z,19.40
2022-08-17T01:58:38.138Z,19.40
2022-08-17T02:02:58.168Z,19.40
2022-08-17T02:05:01.855Z,19.40
2022-08-17T02:09:23.244Z,19.20
2022-08-17T02:11:27.972Z,19.20
2022-08-17T02:13:32.752Z,19.10
2022-08-17T02:15:36.449Z,19.10
2022-08-17T02:17:40.431Z,19.10
2022-08-17T02:19:44.167Z,19.20
2022-08-17T02:21:50.656Z,19.10
2022-08-17T02:23:55.565Z,19.10
2022-08-17T02:26:01.428Z,19.10
2022-08-17T02:28:05.621Z,19.20
2022-08-17T02:30:59.579Z,19.20
2022-08-17T02:32:27.693Z,19.20
2022-08-17T02:34:26.928Z,19.20
2022-08-17T02:36:30.567Z,19.10
2022-08-17T02:38:34.567Z,19.00
2022-08-17T02:40:39.903Z,19.00
2022-08-17T02:42:45.458Z,18.90
2022-08-17T02:44:48.958Z,18.90
2022-08-17T02:46:52.870Z,19.00
2022-08-17T02:48:56.496Z,19.00
2022-08-17T02:51:00.290Z,19.00
2022-08-17T02:53:04.691Z,19.00
2022-08-17T02:57:27.761Z,19.10
2022-08-17T02:59:31.522Z,19.10
2022-08-17T03:01:35.389Z,19.00
2022-08-17T03:03:39.879Z,19.10
2022-08-17T03:05:44.035Z,19.10
2022-08-17T03:07:47.676Z,19.00
2022-08-17T03:09:53.049Z,19.00
2022-08-17T03:11:58.518Z,18.80
2022-08-17T03:14:02.019Z,18.80
2022-08-17T03:16:06.702Z,18.70
2022-08-17T03:18:18.885Z,18.60
2022-08-17T03:20:17.120Z,18.60
2022-08-17T03:22:35.426Z,18.60
2022-08-17T03:24:28.917Z,18.60
2022-08-17T03:26:31.828Z,18.70
2022-08-17T03:28:35.428Z,18.70
2022-08-17T03:30:39.575Z,18.70
2022-08-17T03:32:45.616Z,18.70
2022-08-17T03:34:49.216Z,18.70
2022-08-17T03:36:52.820Z,18.80
2022-08-17T03:38:56.548Z,18.80
2022-08-17T03:41:00.116Z,18.80
2022-08-17T03:45:44.875Z,18.90
2022-08-17T03:48:06.411Z,18.90
2022-08-17T03:52:51.725Z,18.80
2022-08-17T03:55:10.074Z,18.70
2022-08-17T03:57:13.638Z,18.70
2022-08-17T03:59:22.394Z,18.60
2022-08-17T04:01:26.339Z,18.50
2022-08-17T04:03:29.929Z,18.40
2022-08-17T04:05:34.436Z,18.30
2022-08-17T04:07:38.298Z,18.20
2022-08-17T04:09:42.451Z,18.30
2022-08-17T04:11:45.947Z,18.10
2022-08-17T04:13:49.591Z,18.10
2022-08-17T04:15:53.516Z,17.90
2022-08-17T04:17:57.312Z,17.90
2022-08-17T04:20:00.982Z,17.80
2022-08-17T04:22:05.093Z,17.70
2022-08-17T04:24:09.079Z,17.60
2022-08-17T04:28:30.640Z,17.70
2022-08-17T04:30:36.394Z,17.80
2022-08-17T04:33:03.551Z,17.80
2022-08-17T04:35:00.282Z,17.80
2022-08-17T04:37:04.199Z,17.90
2022-08-17T04:39:07.808Z,17.90
2022-08-17T04:41:30.410Z,17.90
2022-08-17T04:43:35.591Z,18.00
2022-08-17T04:45:55.905Z,18.10
2022-08-17T04:47:48.192Z,18.20
2022-08-17T04:49:52.980Z,18.30
2022-08-17T04:51:59.035Z,18.40
2022-08-17T04:54:05.176Z,18.50
2022-08-17T04:58:07.157Z,18.50
2022-08-17T05:02:29.204Z,18.50
2022-08-17T05:04:35.102Z,18.40
2022-08-17T05:06:38.440Z,18.40
2022-08-17T05:08:42.016Z,18.40
2022-08-17T05:10:46.220Z,18.50
2022-08-17T05:12:57.625Z,18.60
2022-08-17T05:15:01.389Z,18.60
2022-08-17T05:17:08.088Z,18.60
2022-08-17T05:19:10.551Z,18.60
2022-08-17T05:23:41.886Z,18.50
2022-08-17T05:25:38.597Z,18.50
2022-08-17T05:27:42.453Z,18.60
2022-08-17T05:29:47.439Z,18.60
2022-08-17T05:31:51.053Z,18.60
2022-08-17T05:33:54.885Z,18.60
2022-08-17T05:35:59.870Z,18.70
2022-08-17T05:38:04.086Z,18.70
2022-08-17T05:40:10.111Z,18.70
2022-08-17T05:42:15.527Z,18.80
2022-08-17T05:46:38.663Z,19.00
2022-08-17T05:48:45.490Z,19.00
2022-08-17T05:50:53.779Z,19.00
2022-08-17T05:53:02.248Z,19.00
2022-08-17T05:55:12.944Z,19.10
2022-08-17T05:59:42.559Z,19.10
2022-08-17T06:01:51.057Z,19.10
2022-08-17T06:03:58.920Z,19.10
2022-08-17T06:06:14.913Z,19.20
2022-08-17T06:10:40.379Z,19.30
2022-08-17T06:12:50.454Z,19.40
2022-08-17T06:15:02.221Z,19.50
2022-08-17T06:17:09.152Z,19.60
2022-08-17T06:19:17.167Z,19.80
2022-08-17T06:21:26.267Z,20.00
2022-08-17T06:23:30.275Z,20.10
2022-08-17T06:25:37.437Z,20.30
2022-08-17T06:27:44.383Z,20.40
2022-08-17T06:32:12.182Z,20.80
2022-08-17T06:34:16.292Z,21.00
2022-08-17T06:36:30.946Z,21.00
2022-08-17T06:38:42.475Z,21.10
2022-08-17T06:43:45.015Z,21.30
2022-08-17T06:45:51.715Z,21.40
2022-08-17T06:47:59.075Z,21.40
2022-08-17T06:50:07.847Z,21.50
2022-08-17T06:52:37.150Z,21.60
2022-08-17T06:54:27.917Z,21.70
2022-08-17T06:56:53.568Z,21.80
2022-08-17T06:58:44.336Z,21.90
2022-08-17T07:00:49.736Z,22.00
2022-08-17T07:02:57.636Z,22.10
2022-08-17T07:05:02.363Z,22.10
2022-08-17T07:07:29.117Z,22.20
2022-08-17T07:11:56.288Z,22.30
2022-08-17T07:14:06.814Z,22.40
2022-08-17T07:16:16.053Z,22.40
2022-08-17T07:20:37.127Z,22.50
2022-08-17T07:22:57.216Z,22.50
2022-08-17T07:24:55.531Z,22.50
2022-08-17T07:29:31.414Z,22.50
2022-08-17T07:31:35.205Z,22.60
2022-08-17T07:33:40.436Z,22.50
2022-08-17T07:35:47.006Z,22.50
2022-08-17T07:37:55.107Z,22.60
2022-08-17T07:39:59.522Z,22.60
2022-08-17T07:42:05.121Z,22.60
2022-08-17T07:46:50.064Z,22.70
2022-08-17T07:51:22.137Z,22.80
2022-08-17T07:53:26.429Z,22.90
2022-08-17T07:55:34.307Z,23.10
2022-08-17T07:57:39.016Z,23.30
2022-08-17T07:59:45.256Z,23.40
2022-08-17T08:04:59.117Z,23.80
2022-08-17T08:06:37.384Z,23.90
2022-08-17T08:08:43.075Z,24.10
2022-08-17T08:10:50.290Z,24.20
2022-08-17T08:13:03.564Z,24.30
2022-08-17T08:15:20.858Z,24.30
2022-08-17T08:17:31.359Z,24.50
2022-08-17T08:19:35.209Z,24.60
2022-08-17T08:21:45.685Z,24.70
2022-08-17T08:23:53.144Z,24.80
2022-08-17T08:26:04.576Z,24.90
2022-08-17T08:28:15.765Z,25.00
2022-08-17T08:30:23.060Z,25.10
2022-08-17T08:35:02.121Z,25.30
2022-08-17T08:37:16.494Z,25.40
2022-08-17T08:39:13.156Z,25.50
2022-08-17T08:41:27.990Z,25.70
2022-08-17T08:45:56.798Z,26.10
2022-08-17T08:48:56.956Z,26.50
2022-08-17T08:50:37.210Z,26.90
2022-08-17T08:52:38.037Z,27.00
2022-08-17T08:57:26.729Z,27.00
2022-08-17T09:04:26.325Z,27.40
2022-08-17T09:06:37.799Z,27.60
2022-08-17T09:08:42.231Z,27.60
2022-08-17T09:10:56.217Z,27.80
2022-08-17T09:13:09.974Z,28.00
2022-08-17T09:15:17.236Z,28.20
2022-08-17T09:17:24.820Z,28.30
2022-08-17T09:21:52.269Z,28.30
2022-08-17T09:24:01.848Z,28.40
2022-08-17T09:26:09.228Z,28.70
2022-08-17T09:28:18.965Z,28.80
2022-08-17T09:30:23.653Z,29.00
2022-08-17T09:32:33.566Z,29.20
2022-08-17T09:36:59.814Z,29.00
2022-08-17T09:39:11.650Z,28.60
2022-08-17T09:41:23.116Z,28.20
2022-08-17T09:43:33.200Z,27.90
2022-08-17T09:47:56.303Z,27.60
2022-08-17T09:50:05.605Z,27.50
2022-08-17T09:52:12.815Z,27.50
2022-08-17T09:56:46.248Z,27.40
2022-08-17T09:58:56.253Z,27.40
2022-08-17T10:01:04.317Z,27.30
2022-08-17T10:06:01.447Z,27.10
2022-08-17T10:08:10.604Z,27.10
2022-08-17T10:10:19.115Z,27.00
2022-08-17T10:12:30.459Z,27.00
2022-08-17T10:16:57.076Z,27.00
2022-08-17T10:19:13.554Z,26.90
2022-08-17T10:21:36.848Z,26.90
2022-08-17T10:24:00.497Z,26.90
2022-08-17T10:26:14.229Z,26.80
2022-08-17T10:28:23.726Z,26.80
2022-08-17T10:32:49.916Z,26.60
2022-08-17T10:35:16.772Z,26.50
2022-08-17T10:37:48.463Z,26.50
2022-08-17T10:39:56.702Z,26.50
2022-08-17T10:42:05.043Z,26.50
2022-08-17T10:44:39.648Z,26.40
2022-08-17T10:46:31.317Z,26.40
2022-08-17T10:48:30.472Z,26.40
2022-08-17T10:51:07.663Z,26.50
2022-08-17T10:53:17.891Z,26.40
2022-08-17T10:55:20.214Z,26.50
2022-08-17T11:00:12.378Z,26.50
2022-08-17T11:02:22.514Z,26.40
2022-08-17T11:04:33.011Z,26.40
2022-08-17T11:06:41.942Z,26.50
2022-08-17T11:09:13.224Z,26.40
2022-08-17T11:12:10.367Z,26.40
2022-08-17T11:14:37.170Z,26.40
2022-08-17T11:19:20.512Z,26.40
2022-08-17T11:24:21.557Z,26.30
2022-08-17T11:28:52.460Z,26.20
2022-08-17T11:34:06.284Z,26.10
2022-08-17T11:38:29.857Z,26.10
2022-08-17T11:40:48.111Z,26.00
2022-08-17T11:45:43.215Z,26.00
2022-08-17T11:48:27.142Z,26.00
2022-08-17T11:52:44.512Z,25.90
2022-08-17T11:57:25.370Z,25.90
2022-08-17T12:02:34.379Z,26.00
2022-08-17T12:04:38.045Z,26.00
2022-08-17T12:06:45.339Z,25.90
2022-08-17T12:11:10.898Z,26.00
2022-08-17T12:15:36.959Z,25.90
2022-08-17T12:17:42.848Z,25.90
2022-08-17T12:22:09.170Z,26.00
2022-08-17T12:26:32.759Z,26.10
2022-08-17T12:28:38.874Z,26.30
2022-08-17T12:30:49.047Z,26.40
2022-08-17T12:35:21.760Z,26.50
2022-08-17T12:39:51.247Z,26.50
2022-08-17T12:44:18.633Z,26.40
2022-08-17T12:48:39.832Z,26.30
2022-08-17T12:50:46.630Z,26.40
2022-08-17T12:55:10.553Z,26.60
2022-08-17T12:57:17.499Z,26.60
2022-08-17T13:01:37.489Z,26.60
2022-08-17T13:03:44.063Z,26.60
2022-08-17T13:08:16.724Z,26.90
2022-08-17T13:10:28.661Z,27.20
2022-08-17T13:12:32.482Z,27.40
2022-08-17T13:16:56.043Z,27.70
2022-08-17T13:21:27.110Z,28.10
2022-08-17T13:25:54.707Z,28.60
2022-08-17T13:27:58.477Z,28.70
2022-08-17T13:32:22.580Z,29.10
2022-08-17T13:35:08.970Z,29.20
2022-08-17T13:39:10.540Z,29.20
2022-08-17T13:41:33.100Z,29.20
2022-08-17T13:43:51.897Z,29.10
2022-08-17T13:48:15.732Z,29.20
2022-08-17T13:50:21.903Z,29.30
2022-08-17T13:57:16.195Z,28.70
2022-08-17T13:59:55.109Z,28.60
2022-08-17T14:01:51.106Z,28.50
2022-08-17T14:03:52.117Z,28.70
2022-08-17T14:08:14.081Z,28.90
2022-08-17T14:12:37.971Z,29.20
2022-08-17T14:14:42.549Z,29.30
2022-08-17T14:18:59.929Z,29.20
2022-08-17T14:21:03.872Z,29.30
2022-08-17T14:23:08.754Z,29.30
2022-08-17T14:27:33.541Z,29.20
2022-08-17T14:31:56.641Z,29.00
2022-08-17T14:34:00.292Z,29.00
2022-08-17T14:38:21.583Z,28.60
2022-08-17T14:42:43.271Z,28.00
2022-08-17T14:44:48.648Z,27.80
2022-08-17T14:46:52.301Z,27.70
2022-08-17T14:48:57.461Z,27.50
2022-08-17T14:51:01.226Z,27.20
2022-08-17T14:55:45.278Z,27.00
2022-08-17T15:00:08.164Z,27.30
2022-08-17T15:02:11.800Z,27.30
2022-08-17T15:06:29.874Z,27.10
2022-08-17T15:10:50.697Z,26.80
2022-08-17T15:15:15.915Z,26.70
2022-08-17T15:17:19.467Z,26.70
2022-08-17T15:19:23.479Z,26.50
2022-08-17T15:21:27.541Z,26.50
2022-08-17T15:25:49.528Z,26.50
2022-08-17T15:27:54.887Z,26.50
2022-08-17T15:32:25.981Z,26.60
2022-08-17T15:36:49.649Z,26.60
2022-08-17T15:41:05.012Z,26.60
2022-08-17T15:43:10.321Z,26.60
2022-08-17T15:45:16.057Z,26.60
2022-08-17T15:49:35.711Z,26.50
2022-08-17T15:51:40.980Z,26.50
2022-08-17T15:56:00.147Z,26.50
2022-08-17T16:00:19.430Z,26.40
2022-08-17T16:04:40.817Z,26.30
2022-08-17T16:06:45.514Z,26.30
2022-08-17T16:11:05.165Z,26.40
2022-08-17T16:13:17.517Z,26.40
2022-08-17T16:17:39.976Z,26.50
2022-08-17T16:21:53.098Z,26.60
2022-08-17T16:26:14.067Z,26.60
2022-08-17T16:30:34.328Z,26.80
2022-08-17T16:32:38.431Z,27.00
2022-08-17T16:34:42.439Z,27.00
2022-08-17T16:36:54.899Z,27.10
2022-08-17T16:38:52.429Z,27.10
2022-08-17T16:40:56.023Z,27.30
2022-08-17T16:42:59.610Z,27.30
2022-08-17T16:45:06.586Z,27.40
2022-08-17T16:47:10.085Z,27.40
2022-08-17T16:49:24.430Z,27.40
2022-08-17T16:51:20.225Z,27.40
2022-08-17T16:53:23.703Z,27.40
2022-08-17T16:55:27.566Z,27.30
2022-08-17T16:57:31.223Z,27.20
2022-08-17T16:59:41.062Z,27.00
2022-08-17T17:01:41.847Z,26.90
2022-08-17T17:06:09.053Z,26.60
2022-08-17T17:08:15.387Z,26.60
2022-08-17T17:10:22.677Z,26.50
2022-08-17T17:14:45.916Z,26.30
2022-08-17T17:16:52.517Z,26.20
2022-08-17T17:21:22.631Z,26.10
2022-08-17T17:23:40.373Z,26.10
2022-08-17T17:28:08.588Z,26.20
2022-08-17T17:30:15.092Z,26.10
2022-08-17T17:34:44.150Z,26.00
2022-08-17T17:36:52.008Z,25.80
2022-08-17T17:38:59.505Z,25.70
2022-08-17T17:41:06.723Z,25.70
2022-08-17T17:43:37.805Z,25.70
2022-08-17T17:47:38.374Z,25.70
2022-08-17T17:49:44.361Z,25.70
2022-08-17T17:52:06.249Z,25.60
2022-08-17T17:56:44.282Z,25.40
2022-08-17T18:00:53.466Z,25.20
2022-08-17T18:03:05.500Z,25.20
2022-08-17T18:05:14.465Z,25.10
2022-08-17T18:07:22.544Z,25.10
2022-08-17T18:09:35.198Z,25.00
2022-08-17T18:12:03.204Z,25.00
2022-08-17T18:16:32.684Z,24.80
2022-08-17T18:18:38.200Z,24.70
2022-08-17T18:20:53.353Z,24.70
2022-08-17T18:25:08.748Z,24.60
2022-08-17T18:29:43.237Z,24.50
2022-08-17T18:31:46.751Z,24.40
2022-08-17T18:36:09.750Z,24.30
2022-08-17T18:38:23.027Z,24.20
2022-08-17T18:40:37.491Z,24.20
2022-08-17T18:42:42.092Z,24.10
2022-08-17T18:44:45.888Z,24.10
2022-08-17T18:46:58.152Z,24.00
2022-08-17T18:49:03.985Z,24.00
2022-08-17T18:53:42.895Z,23.90
2022-08-17T18:58:16.202Z,23.80
2022-08-17T19:00:23.415Z,23.80
2022-08-17T19:02:45.259Z,23.80
2022-08-17T19:09:44.600Z,23.60
2022-08-17T19:14:11.562Z,23.50
2022-08-17T19:16:19.253Z,23.40
2022-08-17T19:18:26.528Z,23.40
2022-08-17T19:20:34.590Z,23.40
2022-08-17T19:22:47.229Z,23.30
2022-08-17T19:25:02.634Z,23.30
2022-08-17T19:27:06.180Z,23.30
2022-08-17T19:29:15.409Z,23.30
2022-08-17T19:31:23.068Z,23.20
2022-08-17T19:33:27.259Z,23.20
2022-08-17T19:35:39.066Z,23.30
2022-08-17T19:37:45.684Z,23.10
2022-08-17T19:42:11.484Z,23.00
2022-08-17T19:47:00.785Z,23.00
2022-08-17T19:49:05.819Z,23.00
2022-08-17T19:53:54.106Z,23.00
2022-08-17T19:58:02.839Z,22.90
2022-08-17T20:02:33.321Z,22.90
2022-08-17T20:06:58.836Z,22.90
2022-08-17T20:09:09.496Z,22.90
2022-08-17T20:13:33.211Z,22.80
2022-08-17T20:15:38.806Z,22.80
2022-08-17T20:20:02.880Z,22.60
2022-08-17T20:22:10.258Z,22.60
2022-08-17T20:29:40.234Z,22.30
2022-08-17T20:33:58.680Z,22.10
2022-08-17T20:38:42.337Z,22.00
2022-08-17T20:41:11.505Z,22.10
2022-08-17T20:43:43.614Z,22.10
2022-08-17T20:46:05.382Z,22.10
2022-08-17T20:48:37.017Z,22.10
2022-08-17T20:53:01.887Z,22.10
2022-08-17T20:55:12.791Z,22.20
2022-08-17T21:00:16.814Z,22.20
2022-08-17T21:02:29.501Z,22.10
2022-08-17T21:04:49.546Z,22.10
2022-08-17T21:09:44.994Z,22.00
2022-08-17T21:12:08.988Z,21.90
2022-08-17T21:14:40.121Z,21.80
2022-08-17T21:17:04.887Z,21.70
2022-08-17T21:19:24.834Z,21.70
2022-08-17T21:21:32.031Z,21.70
2022-08-17T21:23:45.194Z,21.60
2022-08-17T21:26:06.488Z,21.60
2022-08-17T21:28:13.732Z,21.50
2022-08-17T21:30:26.023Z,21.50
2022-08-17T21:32:31.860Z,21.50
2022-08-17T21:34:38.712Z,21.50
2022-08-17T21:36:43.405Z,21.40
2022-08-17T21:41:19.585Z,21.40
2022-08-17T21:43:28.771Z,21.40
2022-08-17T21:47:50.251Z,21.40
2022-08-17T21:49:54.675Z,21.40
2022-08-17T21:51:59.078Z,21.50
2022-08-17T21:54:06.308Z,21.40
2022-08-17T21:56:14.746Z,21.40
2022-08-17T21:58:25.211Z,21.40
2022-08-17T22:00:31.934Z,21.40
2022-08-17T22:02:37.499Z,21.50
2022-08-17T22:06:58.773Z,21.30
2022-08-17T22:09:12.450Z,21.30
2022-08-17T22:13:32.432Z,21.20
2022-08-17T22:15:39.902Z,21.10
2022-08-17T22:17:46.458Z,21.10
2022-08-17T22:19:52.268Z,21.10
2022-08-17T22:24:22.128Z,20.90
2022-08-17T22:26:29.095Z,20.90
2022-08-17T22:28:45.229Z,20.80
2022-08-17T22:31:03.446Z,20.80
2022-08-17T22:33:33.756Z,20.80
2022-08-17T22:35:40.196Z,20.90
2022-08-17T22:37:43.787Z,20.90
2022-08-17T22:42:02.808Z,20.80
2022-08-17T22:44:19.288Z,20.80
2022-08-17T22:46:26.121Z,20.90
2022-08-17T22:48:30.646Z,20.90
2022-08-17T22:50:34.580Z,20.80
2022-08-17T22:52:41.971Z,20.90
2022-08-17T22:55:08.334Z,20.80
2022-08-17T22:57:31.932Z,20.80
2022-08-17T22:59:45.613Z,20.70
2022-08-17T23:02:33.589Z,20.70
2022-08-17T23:04:39.881Z,20.60
2022-08-17T23:06:43.499Z,20.50
2022-08-17T23:08:49.677Z,20.60
2022-08-17T23:10:54.513Z,20.50
2022-08-17T23:12:59.752Z,20.60
2022-08-17T23:15:08.823Z,20.60
2022-08-17T23:19:30.800Z,20.60
2022-08-17T23:21:37.289Z,20.60
2022-08-17T23:23:40.045Z,20.50
2022-08-17T23:25:45.464Z,20.50
2022-08-17T23:27:50.219Z,20.50
2022-08-17T23:32:14.622Z,20.60
2022-08-17T23:34:18.684Z,20.60
2022-08-17T23:36:23.056Z,20.60
2022-08-17T23:38:27.268Z,20.60
2022-08-17T23:40:31.467Z,20.50
2022-08-17T23:42:35.255Z,20.50
2022-08-17T23:44:40.420Z,20.40
2022-08-17T23:46:44.183Z,20.30
2022-08-17T23:51:09.441Z,20.10
2022-08-17T23:53:13.076Z,20.00
2022-08-17T23:55:16.641Z,19.90
2022-08-17T23:57:33.811Z,19.90
2022-08-17T23:59:28.563Z,19.80
